createdAt,value
2018-10-18T00:00:30.785Z,85.51
2018-10-18T00:02:59.750Z,85.68
2018-10-18T00:05:28.566Z,85.04
2018-10-18T00:07:57.192Z,84.93
2018-10-18T00:10:25.813Z,84.53
2018-10-18T00:12:54.523Z,85.05
2018-10-18T00:15:23.157Z,85.43
2018-10-18T00:17:51.845Z,85.67
2018-10-18T00:20:20.461Z,86.18
2018-10-18T00:22:49.131Z,85.88
2018-10-18T00:25:17.750Z,85.03
2018-10-18T00:27:46.389Z,85.29
2018-10-18T00:30:15.719Z,86.17
2018-10-18T00:32:44.912Z,86.18
2018-10-18T00:35:13.692Z,86.82
2018-10-18T00:37:42.372Z,87.44
2018-10-18T00:40:11.935Z,88.12
2018-10-18T00:42:40.980Z,87.75
2018-10-18T00:45:10.336Z,88.52
2018-10-18T00:47:38.976Z,89.36
2018-10-18T00:50:08.964Z,89.93
2018-10-18T00:52:37.602Z,90.44
2018-10-18T00:55:06.648Z,90.38
2018-10-18T00:57:35.283Z,90.74
2018-10-18T01:00:04.011Z,90.31
2018-10-18T01:02:32.621Z,89.66
2018-10-18T01:05:01.268Z,89.03
2018-10-18T01:07:29.983Z,88.61
2018-10-18T01:09:58.626Z,88.68
2018-10-18T01:12:27.395Z,88.54
2018-10-18T01:14:55.899Z,87.75
2018-10-18T01:17:24.553Z,87.86
2018-10-18T01:19:53.222Z,87.76
2018-10-18T01:22:21.931Z,87.21
2018-10-18T01:24:50.582Z,86.69
2018-10-18T01:27:19.231Z,86.69
2018-10-18T01:29:47.869Z,87.27
2018-10-18T01:32:16.632Z,88.09
2018-10-18T01:34:45.220Z,89.05
2018-10-18T01:37:13.839Z,89.60
2018-10-18T01:39:42.507Z,89.91
2018-10-18T01:42:11.199Z,91.40
2018-10-18T01:44:39.837Z,91.52
2018-10-18T01:47:08.451Z,92.55
2018-10-18T01:49:37.119Z,93.32
2018-10-18T01:52:05.963Z,93.67
2018-10-18T01:54:34.742Z,94.24
2018-10-18T01:57:03.384Z,94.65
2018-10-18T01:59:32.048Z,95.37
2018-10-18T02:02:00.763Z,95.38
2018-10-18T02:04:29.384Z,95.51
2018-10-18T02:06:58.059Z,95.65
2018-10-18T02:09:26.733Z,95.69
2018-10-18T02:11:55.381Z,95.76
2018-10-18T02:14:24.102Z,95.77
2018-10-18T02:16:52.711Z,96.00
2018-10-18T02:19:21.527Z,96.56
2018-10-18T02:21:50.002Z,96.83
2018-10-18T02:24:18.667Z,96.83
2018-10-18T02:26:47.901Z,96.37
2018-10-18T02:29:16.528Z,96.60
2018-10-18T02:31:45.175Z,96.44
2018-10-18T02:34:13.830Z,96.35
2018-10-18T02:36:42.454Z,96.26
2018-10-18T02:39:11.159Z,96.44
2018-10-18T02:41:39.800Z,96.41
2018-10-18T02:44:08.440Z,96.71
2018-10-18T02:46:37.107Z,96.66
2018-10-18T02:49:05.736Z,96.54
2018-10-18T02:51:34.395Z,96.48
2018-10-18T02:54:03.061Z,96.61
2018-10-18T02:56:31.667Z,96.25
2018-10-18T02:59:00.299Z,96.17
2018-10-18T03:01:28.917Z,96.14
2018-10-18T03:03:57.522Z,96.54
2018-10-18T03:06:26.169Z,96.79
2018-10-18T03:08:54.869Z,96.45
2018-10-18T03:11:23.528Z,96.38
2018-10-18T03:13:52.827Z,96.39
2018-10-18T03:16:21.489Z,96.44
2018-10-18T03:18:50.122Z,96.80
2018-10-18T03:21:18.751Z,96.48
2018-10-18T03:23:47.884Z,96.60
2018-10-18T03:26:16.928Z,96.86
2018-10-18T03:28:45.599Z,97.07
2018-10-18T03:31:14.366Z,96.60
2018-10-18T03:33:43.437Z,96.79
2018-10-18T03:36:12.889Z,97.15
2018-10-18T03:38:41.426Z,96.97
2018-10-18T03:41:10.165Z,97.22
2018-10-18T03:43:38.803Z,97.12
2018-10-18T03:46:07.629Z,97.08
2018-10-18T03:48:36.283Z,97.18
2018-10-18T03:51:05.100Z,97.46
2018-10-18T03:53:33.696Z,97.34
2018-10-18T03:56:02.469Z,97.57
2018-10-18T03:58:31.443Z,97.63
2018-10-18T04:01:00.089Z,97.57
2018-10-18T04:03:28.775Z,97.44
2018-10-18T04:05:57.438Z,97.31
2018-10-18T04:08:26.109Z,97.15
2018-10-18T04:10:54.765Z,97.36
2018-10-18T04:13:23.674Z,97.21
2018-10-18T04:15:52.071Z,97.23
2018-10-18T04:18:20.779Z,97.44
2018-10-18T04:20:49.357Z,97.33
2018-10-18T04:23:22.197Z,97.20
2018-10-18T04:25:50.961Z,97.19
2018-10-18T04:28:19.613Z,96.79
2018-10-18T04:30:48.280Z,97.12
2018-10-18T04:33:16.919Z,97.12
2018-10-18T04:35:45.609Z,96.95
2018-10-18T04:38:14.327Z,96.86
2018-10-18T04:40:42.973Z,96.78
2018-10-18T04:43:11.619Z,96.83
2018-10-18T04:45:40.691Z,97.07
2018-10-18T04:48:09.396Z,97.06
2018-10-18T04:50:38.132Z,96.78
2018-10-18T04:53:07.347Z,96.54
2018-10-18T04:55:36.121Z,96.09
2018-10-18T04:58:05.258Z,96.44
2018-10-18T05:00:33.980Z,96.46
2018-10-18T05:03:02.637Z,96.12
2018-10-18T05:05:41.568Z,96.28
2018-10-18T05:08:10.194Z,96.18
2018-10-18T05:10:39.343Z,96.12
2018-10-18T05:13:08.114Z,96.31
2018-10-18T05:15:36.756Z,96.37
2018-10-18T05:18:05.698Z,96.83
2018-10-18T05:20:34.453Z,96.67
2018-10-18T05:23:03.155Z,96.43
2018-10-18T05:25:32.383Z,96.33
2018-10-18T05:28:01.290Z,96.43
2018-10-18T05:30:29.971Z,96.13
2018-10-18T05:32:58.649Z,96.09
2018-10-18T05:35:27.401Z,96.44
2018-10-18T05:37:56.084Z,96.38
2018-10-18T05:40:24.736Z,96.34
2018-10-18T05:42:53.451Z,96.68
2018-10-18T05:45:22.031Z,96.87
2018-10-18T05:47:50.652Z,96.76
2018-10-18T05:50:19.379Z,96.66
2018-10-18T05:52:49.472Z,96.73
2018-10-18T05:55:18.174Z,96.90
2018-10-18T05:57:46.749Z,96.91
2018-10-18T06:00:16.708Z,97.02
2018-10-18T06:02:45.622Z,97.02
2018-10-18T06:05:15.497Z,96.78
2018-10-18T06:07:44.735Z,96.69
2018-10-18T06:10:25.889Z,97.00
2018-10-18T06:12:54.559Z,97.02
2018-10-18T06:15:23.651Z,96.80
2018-10-18T06:17:52.439Z,96.66
2018-10-18T06:20:21.955Z,96.27
2018-10-18T06:22:50.720Z,96.15
2018-10-18T06:25:19.370Z,96.04
2018-10-18T06:27:48.048Z,95.46
2018-10-18T06:30:17.299Z,95.31
2018-10-18T06:32:46.005Z,95.62
2018-10-18T06:35:17.219Z,95.58
2018-10-18T06:37:46.283Z,94.84
2018-10-18T06:40:16.123Z,94.89
2018-10-18T06:42:44.775Z,95.24
2018-10-18T06:45:17.679Z,94.83
2018-10-18T06:47:46.569Z,94.89
2018-10-18T06:50:21.486Z,94.50
2018-10-18T06:52:50.102Z,94.38
2018-10-18T06:55:18.875Z,95.06
2018-10-18T06:57:47.407Z,95.07
2018-10-18T07:00:17.412Z,94.82
2018-10-18T07:02:46.179Z,94.80
2018-10-18T07:05:15.484Z,94.87
2018-10-18T07:07:44.695Z,94.82
2018-10-18T07:10:13.523Z,95.12
2018-10-18T07:12:42.547Z,94.79
2018-10-18T07:15:12.037Z,95.20
2018-10-18T07:17:41.532Z,95.40
2018-10-18T07:20:10.569Z,95.58
2018-10-18T07:22:40.763Z,95.66
2018-10-18T07:25:12.275Z,96.19
2018-10-18T07:27:41.814Z,96.43
2018-10-18T07:30:12.214Z,96.28
2018-10-18T07:32:41.346Z,96.32
2018-10-18T07:35:11.384Z,96.39
2018-10-18T07:37:40.559Z,96.62
2018-10-18T07:40:12.877Z,96.22
2018-10-18T07:42:41.570Z,96.72
2018-10-18T07:45:11.379Z,96.66
2018-10-18T07:47:40.125Z,96.63
2018-10-18T07:50:09.257Z,96.88
2018-10-18T07:52:38.855Z,96.76
2018-10-18T07:55:08.287Z,96.76
2018-10-18T07:57:37.150Z,96.57
2018-10-18T08:00:07.936Z,96.44
2018-10-18T08:02:36.564Z,96.20
2018-10-18T08:05:05.958Z,95.76
2018-10-18T08:07:34.894Z,95.78
2018-10-18T08:10:03.631Z,95.68
2018-10-18T08:12:37.969Z,95.51
2018-10-18T08:15:07.780Z,94.90
2018-10-18T08:17:36.429Z,94.74
2018-10-18T08:20:05.406Z,94.73
2018-10-18T08:22:34.099Z,94.52
2018-10-18T08:25:02.790Z,94.26
2018-10-18T08:27:31.399Z,94.34
2018-10-18T08:30:00.073Z,94.63
2018-10-18T08:32:28.786Z,93.99
2018-10-18T08:34:57.527Z,93.89
2018-10-18T08:37:26.717Z,93.92
2018-10-18T08:39:55.993Z,93.63
2018-10-18T08:42:24.736Z,93.65
2018-10-18T08:44:53.399Z,93.54
2018-10-18T08:47:22.032Z,93.32
2018-10-18T08:49:50.776Z,92.74
2018-10-18T08:52:19.566Z,92.92
2018-10-18T08:54:48.210Z,93.32
2018-10-18T08:57:16.954Z,92.64
2018-10-18T08:59:45.603Z,92.73
2018-10-18T09:02:14.275Z,92.56
2018-10-18T09:04:42.918Z,92.36
2018-10-18T09:07:11.647Z,92.28
2018-10-18T09:09:40.255Z,91.94
2018-10-18T09:12:08.919Z,91.74
2018-10-18T09:14:37.621Z,91.86
2018-10-18T09:17:06.270Z,92.40
2018-10-18T09:19:34.976Z,92.33
2018-10-18T09:22:03.648Z,92.07
2018-10-18T09:24:32.292Z,91.90
2018-10-18T09:27:00.953Z,92.17
2018-10-18T09:29:29.583Z,92.33
2018-10-18T09:31:58.227Z,92.26
2018-10-18T09:34:26.871Z,92.44
2018-10-18T09:36:55.543Z,92.37
2018-10-18T09:39:24.160Z,92.47
2018-10-18T09:41:52.815Z,92.64
2018-10-18T09:44:21.528Z,92.19
2018-10-18T09:46:50.091Z,92.22
2018-10-18T09:49:18.859Z,92.02
2018-10-18T09:51:47.344Z,91.81
2018-10-18T09:54:15.950Z,91.87
2018-10-18T09:56:44.588Z,91.50
2018-10-18T09:59:13.191Z,91.13
2018-10-18T10:01:48.565Z,91.15
2018-10-18T10:04:17.254Z,90.93
2018-10-18T10:06:45.876Z,90.44
2018-10-18T10:09:14.507Z,90.23
2018-10-18T10:11:43.179Z,90.61
2018-10-18T10:14:11.754Z,90.65
2018-10-18T10:16:40.391Z,90.16
2018-10-18T10:19:09.077Z,90.32
2018-10-18T10:21:37.691Z,89.86
2018-10-18T10:24:06.582Z,90.25
2018-10-18T10:26:35.497Z,89.53
2018-10-18T10:29:04.134Z,89.59
2018-10-18T10:31:32.891Z,89.35
2018-10-18T10:34:01.537Z,89.17
2018-10-18T10:36:30.169Z,89.08
2018-10-18T10:38:58.853Z,88.68
2018-10-18T10:41:27.491Z,88.26
2018-10-18T10:43:56.123Z,87.61
2018-10-18T10:46:24.966Z,84.97
2018-10-18T10:48:53.628Z,80.55
2018-10-18T10:51:22.292Z,79.33
2018-10-18T10:53:51.047Z,80.35
2018-10-18T10:56:19.664Z,80.80
2018-10-18T10:58:48.389Z,81.77
2018-10-18T11:01:20.045Z,82.15
2018-10-18T11:03:50.198Z,82.91
2018-10-18T11:06:19.151Z,82.41
2018-10-18T11:08:47.873Z,83.10
2018-10-18T11:11:17.121Z,82.20
2018-10-18T11:13:46.119Z,82.84
2018-10-18T11:16:15.052Z,82.41
2018-10-18T11:18:44.160Z,82.86
2018-10-18T11:21:15.239Z,82.99
2018-10-18T11:23:44.019Z,83.69
2018-10-18T11:26:13.048Z,83.69
2018-10-18T11:28:41.694Z,83.71
2018-10-18T11:31:10.657Z,83.61
2018-10-18T11:33:39.706Z,83.08
2018-10-18T11:36:08.910Z,82.72
2018-10-18T11:38:37.563Z,82.86
2018-10-18T11:41:06.411Z,82.44
2018-10-18T11:43:35.240Z,82.64
2018-10-18T11:46:04.179Z,82.60
2018-10-18T11:48:32.889Z,82.76
2018-10-18T11:51:01.841Z,82.07
2018-10-18T11:53:30.807Z,82.41
2018-10-18T11:55:59.848Z,82.07
2018-10-18T11:58:28.783Z,82.75
2018-10-18T12:00:57.488Z,82.83
2018-10-18T12:03:26.274Z,83.28
2018-10-18T12:05:54.990Z,83.90
2018-10-18T12:08:23.655Z,84.39
2018-10-18T12:10:52.532Z,84.31
2018-10-18T12:13:21.220Z,84.21
2018-10-18T12:15:49.939Z,84.12
2018-10-18T12:18:18.667Z,84.31
2018-10-18T12:20:47.460Z,85.14
2018-10-18T12:23:16.386Z,84.98
2018-10-18T12:25:46.243Z,84.87
2018-10-18T12:28:15.116Z,85.28
2018-10-18T12:30:44.220Z,85.43
2018-10-18T12:33:12.879Z,85.47
2018-10-18T12:35:43.824Z,85.17
2018-10-18T12:38:12.794Z,84.95
2018-10-18T12:40:42.573Z,84.79
2018-10-18T12:43:12.126Z,84.69
2018-10-18T12:45:40.810Z,84.44
2018-10-18T12:48:10.260Z,84.30
2018-10-18T12:50:39.702Z,84.01
2018-10-18T12:53:08.719Z,82.67
2018-10-18T12:55:37.387Z,82.83
2018-10-18T12:58:06.422Z,82.61
2018-10-18T13:00:36.541Z,82.22
2018-10-18T13:03:05.697Z,80.73
2018-10-18T13:05:34.430Z,79.82
2018-10-18T13:08:03.593Z,78.58
2018-10-18T13:10:32.412Z,77.27
2018-10-18T13:13:01.667Z,76.32
2018-10-18T13:15:30.367Z,76.55
2018-10-18T13:17:59.207Z,76.54
2018-10-18T13:20:28.149Z,76.75
2018-10-18T13:22:56.837Z,76.48
2018-10-18T13:25:25.746Z,76.65
2018-10-18T13:27:54.582Z,74.76
2018-10-18T13:30:23.680Z,75.89
2018-10-18T13:32:53.191Z,76.68
2018-10-18T13:35:22.727Z,77.10
2018-10-18T13:37:51.689Z,76.47
2018-10-18T13:40:21.420Z,76.26
2018-10-18T13:42:50.730Z,75.58
2018-10-18T13:45:19.466Z,75.39
2018-10-18T13:47:48.155Z,74.88
2018-10-18T13:50:17.220Z,74.84
2018-10-18T13:52:46.540Z,75.69
2018-10-18T13:55:15.285Z,75.24
2018-10-18T13:57:44.121Z,75.36
2018-10-18T14:00:20.507Z,74.97
2018-10-18T14:02:49.737Z,75.52
2018-10-18T14:05:18.408Z,75.22
2018-10-18T14:07:47.353Z,75.45
2018-10-18T14:10:15.986Z,75.07
2018-10-18T14:12:44.773Z,74.04
2018-10-18T14:15:13.427Z,74.16
2018-10-18T14:17:42.353Z,73.46
2018-10-18T14:20:11.191Z,73.43
2018-10-18T14:22:40.140Z,73.65
2018-10-18T14:25:09.213Z,73.25
2018-10-18T14:27:37.896Z,72.56
2018-10-18T14:30:08.126Z,72.07
2018-10-18T14:32:36.898Z,73.03
2018-10-18T14:35:06.408Z,72.47
2018-10-18T14:37:35.170Z,72.80
2018-10-18T14:40:03.939Z,72.27
2018-10-18T14:42:32.678Z,72.21
2018-10-18T14:45:01.457Z,72.10
2018-10-18T14:47:30.539Z,71.82
2018-10-18T14:49:59.187Z,72.26
2018-10-18T14:52:27.821Z,72.38
2018-10-18T14:54:56.444Z,73.17
2018-10-18T14:57:25.115Z,72.72
2018-10-18T14:59:53.896Z,73.41
2018-10-18T15:02:22.597Z,74.03
2018-10-18T15:04:51.208Z,73.36
2018-10-18T15:07:19.857Z,73.40
2018-10-18T15:09:48.575Z,73.40
2018-10-18T15:12:17.216Z,72.90
2018-10-18T15:14:45.920Z,72.07
2018-10-18T15:17:14.621Z,71.80
2018-10-18T15:19:43.355Z,71.11
2018-10-18T15:22:12.336Z,70.91
2018-10-18T15:24:41.035Z,71.41
2018-10-18T15:27:09.780Z,71.14
2018-10-18T15:29:38.349Z,71.01
2018-10-18T15:32:07.466Z,71.69
2018-10-18T15:34:36.132Z,70.69
2018-10-18T15:37:05.888Z,71.47
2018-10-18T15:39:34.904Z,71.37
2018-10-18T15:42:03.427Z,70.60
2018-10-18T15:44:32.133Z,70.20
2018-10-18T15:47:04.639Z,71.10
2018-10-18T15:49:33.328Z,69.90
2018-10-18T15:52:01.961Z,69.24
2018-10-18T15:54:31.490Z,69.01
2018-10-18T15:57:00.200Z,69.18
2018-10-18T15:59:28.911Z,68.87
2018-10-18T16:01:57.571Z,69.79
2018-10-18T16:04:26.245Z,70.27
2018-10-18T16:06:54.876Z,69.47
2018-10-18T16:09:23.769Z,70.11
2018-10-18T16:11:52.519Z,69.79
2018-10-18T16:14:21.198Z,69.45
2018-10-18T16:16:49.810Z,70.09
2018-10-18T16:19:19.513Z,69.88
2018-10-18T16:21:48.376Z,69.83
2018-10-18T16:24:17.318Z,69.74
2018-10-18T16:26:45.940Z,69.65
2018-10-18T16:29:15.464Z,71.04
2018-10-18T16:31:44.215Z,70.93
2018-10-18T16:34:12.860Z,71.31
2018-10-18T16:36:41.512Z,70.89
2018-10-18T16:39:11.989Z,71.58
2018-10-18T16:41:40.716Z,71.49
2018-10-18T16:44:09.595Z,71.43
2018-10-18T16:46:38.132Z,71.54
2018-10-18T16:49:06.977Z,71.76
2018-10-18T16:51:35.582Z,71.43
2018-10-18T16:54:04.241Z,71.83
2018-10-18T16:56:32.916Z,72.17
2018-10-18T16:59:01.612Z,73.24
2018-10-18T17:01:30.241Z,73.32
2018-10-18T17:03:59.247Z,73.93
2018-10-18T17:06:28.804Z,73.69
2018-10-18T17:08:57.863Z,73.96
2018-10-18T17:11:26.634Z,74.01
2018-10-18T17:13:55.427Z,74.25
2018-10-18T17:16:24.112Z,74.16
2018-10-18T17:18:52.714Z,74.34
2018-10-18T17:21:21.429Z,74.57
2018-10-18T17:23:50.081Z,74.55
2018-10-18T17:26:18.843Z,74.97
2018-10-18T17:28:47.444Z,75.11
2018-10-18T17:31:16.091Z,75.40
2018-10-18T17:33:44.819Z,75.72
2018-10-18T17:36:13.498Z,75.23
2018-10-18T17:38:42.356Z,75.73
2018-10-18T17:41:11.083Z,75.49
2018-10-18T17:43:39.714Z,75.92
2018-10-18T17:46:09.062Z,75.45
2018-10-18T17:48:37.794Z,75.20
2018-10-18T17:51:07.079Z,75.21
2018-10-18T17:53:35.743Z,76.27
2018-10-18T17:56:04.819Z,75.20
2018-10-18T17:58:33.545Z,75.35
2018-10-18T18:01:02.284Z,73.89
2018-10-18T18:03:31.969Z,73.76
2018-10-18T18:06:00.966Z,72.85
2018-10-18T18:08:31.138Z,72.90
2018-10-18T18:11:01.514Z,72.02
2018-10-18T18:13:30.623Z,71.93
2018-10-18T18:15:59.363Z,71.73
2018-10-18T18:18:28.043Z,70.69
2018-10-18T18:20:56.910Z,71.07
2018-10-18T18:23:25.720Z,69.98
2018-10-18T18:25:54.481Z,68.24
2018-10-18T18:28:23.957Z,68.52
2018-10-18T18:30:52.617Z,68.94
2018-10-18T18:33:21.268Z,67.42
2018-10-18T18:35:49.884Z,67.47
2018-10-18T18:38:18.522Z,67.59
2018-10-18T18:40:47.164Z,67.67
2018-10-18T18:43:15.824Z,66.54
2018-10-18T18:45:44.396Z,66.80
2018-10-18T18:48:13.211Z,67.35
2018-10-18T18:50:42.418Z,67.51
2018-10-18T18:53:11.494Z,67.27
2018-10-18T18:55:40.000Z,67.89
2018-10-18T18:58:08.629Z,67.88
2018-10-18T19:00:37.231Z,67.21
2018-10-18T19:03:06.412Z,67.96
2018-10-18T19:05:35.124Z,67.80
2018-10-18T19:08:03.878Z,68.27
2018-10-18T19:10:32.520Z,68.31
2018-10-18T19:13:01.865Z,68.94
2018-10-18T19:15:30.481Z,70.33
2018-10-18T19:17:59.120Z,70.11
2018-10-18T19:20:27.822Z,69.33
2018-10-18T19:22:56.456Z,68.01
2018-10-18T19:25:25.055Z,67.78
2018-10-18T19:27:53.696Z,67.58
2018-10-18T19:30:22.335Z,66.21
2018-10-18T19:32:51.121Z,68.23
2018-10-18T19:35:19.983Z,67.93
2018-10-18T19:37:48.674Z,67.60
2018-10-18T19:40:17.342Z,67.25
2018-10-18T19:42:46.003Z,66.70
2018-10-18T19:45:15.511Z,66.87
2018-10-18T19:47:44.194Z,67.20
2018-10-18T19:50:13.219Z,67.65
2018-10-18T19:52:42.453Z,67.30
2018-10-18T19:55:11.274Z,67.70
2018-10-18T19:57:40.006Z,66.54
2018-10-18T20:00:09.181Z,66.28
2018-10-18T20:02:38.210Z,65.51
2018-10-18T20:05:08.283Z,66.00
2018-10-18T20:07:37.757Z,65.00
2018-10-18T20:10:06.980Z,64.97
2018-10-18T20:12:36.987Z,65.20
2018-10-18T20:15:06.618Z,64.35
2018-10-18T20:17:35.887Z,65.69
2018-10-18T20:20:05.547Z,65.01
2018-10-18T20:22:34.127Z,64.45
2018-10-18T20:25:03.026Z,63.81
2018-10-18T20:27:31.480Z,64.31
2018-10-18T20:30:00.301Z,63.78
2018-10-18T20:32:29.200Z,64.18
2018-10-18T20:34:57.720Z,64.08
2018-10-18T20:37:26.492Z,63.02
2018-10-18T20:39:55.283Z,63.24
2018-10-18T20:42:23.868Z,63.39
2018-10-18T20:44:52.656Z,63.65
2018-10-18T20:47:21.676Z,64.32
2018-10-18T20:49:50.264Z,64.56
2018-10-18T20:52:19.802Z,66.39
2018-10-18T20:54:48.591Z,67.86
2018-10-18T20:57:17.257Z,69.94
2018-10-18T20:59:45.951Z,69.87
2018-10-18T21:02:15.112Z,70.57
2018-10-18T21:04:43.812Z,70.60
2018-10-18T21:07:13.581Z,71.66
2018-10-18T21:09:42.224Z,71.70
2018-10-18T21:12:12.045Z,72.08
2018-10-18T21:14:41.003Z,72.33
2018-10-18T21:17:09.733Z,73.51
2018-10-18T21:19:38.341Z,74.12
2018-10-18T21:22:07.077Z,73.78
2018-10-18T21:24:35.744Z,73.81
2018-10-18T21:27:05.125Z,74.14
2018-10-18T21:29:33.699Z,74.13
2018-10-18T21:32:02.395Z,74.33
2018-10-18T21:34:31.133Z,75.78
2018-10-18T21:36:59.715Z,75.27
2018-10-18T21:39:36.235Z,75.30
2018-10-18T21:42:05.481Z,75.44
2018-10-18T21:44:36.004Z,76.32
2018-10-18T21:47:04.933Z,76.22
2018-10-18T21:49:33.596Z,76.37
2018-10-18T21:52:02.265Z,76.07
2018-10-18T21:54:30.917Z,76.22
2018-10-18T21:56:59.810Z,76.24
2018-10-18T21:59:28.412Z,76.78
2018-10-18T22:01:57.080Z,77.08
2018-10-18T22:04:25.744Z,77.61
2018-10-18T22:06:54.463Z,76.71
2018-10-18T22:09:23.264Z,77.05
2018-10-18T22:11:51.891Z,77.35
2018-10-18T22:14:21.121Z,78.44
2018-10-18T22:16:50.688Z,78.00
2018-10-18T22:19:19.353Z,77.95
2018-10-18T22:21:48.053Z,78.04
2018-10-18T22:24:16.682Z,78.08
2018-10-18T22:26:45.863Z,77.77
2018-10-18T22:29:14.610Z,77.79
2018-10-18T22:31:43.191Z,78.53
2018-10-18T22:34:11.831Z,78.45
2018-10-18T22:36:41.740Z,78.26
2018-10-18T22:39:11.329Z,78.10
2018-10-18T22:41:40.632Z,78.37
2018-10-18T22:44:10.084Z,82.56
2018-10-18T22:46:38.719Z,77.88
2018-10-18T22:49:07.406Z,73.18
2018-10-18T22:51:36.288Z,73.39
2018-10-18T22:54:05.321Z,72.59
2018-10-18T22:56:34.178Z,71.62
2018-10-18T22:59:02.880Z,70.93
2018-10-18T23:01:31.533Z,70.09
2018-10-18T23:04:00.378Z,70.11
2018-10-18T23:06:28.989Z,69.86
2018-10-18T23:08:57.663Z,70.24
2018-10-18T23:11:26.346Z,70.40
2018-10-18T23:13:54.963Z,70.58
2018-10-18T23:16:23.599Z,71.66
2018-10-18T23:18:52.263Z,73.54
2018-10-18T23:21:20.895Z,73.82
2018-10-18T23:23:49.534Z,74.81
2018-10-18T23:26:18.201Z,75.42
2018-10-18T23:28:46.830Z,75.89
2018-10-18T23:31:15.456Z,76.40
2018-10-18T23:33:44.126Z,76.65
2018-10-18T23:36:12.763Z,77.39
2018-10-18T23:38:41.388Z,77.29
2018-10-18T23:41:10.095Z,78.35
2018-10-18T23:43:38.627Z,78.61
2018-10-18T23:46:07.297Z,78.51
2018-10-18T23:48:35.976Z,78.29
2018-10-18T23:51:04.604Z,78.22
2018-10-18T23:53:33.219Z,78.31
2018-10-18T23:56:01.816Z,78.18
2018-10-18T23:58:30.456Z,78.44
